• Join FlightAware (Why Join?)
  • Login
  • US Flag 
06:14PM EDT


 

Airport Tracker/Info


-or-


 

Live Flight TrackerFlight Track Log ✈ AWE3417 ✈ 10-Apr-2013 ✈ KDCA - KCMH

Flight Track Log - Related Links

Times and Time Zones

All times are in EDT time to prevent confusion due to time zone crossing. See the AWE3417 flight status page for this flight to view local times or setup timezone preferences in your user account.

Time Position Orientation Groundspeed Altitude Reporting Facility
EDT Latitude Longitude Course Direction KTS MPH feet Rate Location/Type
07:49PM 38.8167 -77.0333 274° West 159 183 1,500  Level Potomac TRACON
07:50PM 38.7667 -77.0333 180° South 214 246 3,300 2,040 Climbing Potomac TRACON
07:51PM 38.9249 -77.4499 303° West  Level FlightAware Approximate
07:51PM 38.7333 -77.1000 237° Southwest 263 303 5,600  Level Potomac TRACON
07:52PM 38.9333 -77.5958 270° West  Level FlightAware Approximate
07:52PM 38.7833 -77.2347 295° West 260 299 11,000  Level Washington Center
07:53PM 38.9333 -77.7450 270° West  Level FlightAware Approximate
07:53PM 38.8175 -77.3342 294° West 279 321 12,700  Level Washington Center
07:54PM 38.9398 -77.8938 274° West  Level FlightAware Approximate
07:54PM 38.8475 -77.4203 294° West 305 351 14,800  Level Washington Center
07:55PM 38.8933 -77.5467 295° West 321 369 17,000 1,980 Climbing Washington Center
07:56PM 38.9292 -77.6464 295° West 332 382 18,800 1,740 Climbing Washington Center
07:57PM 38.9436 -77.7828 278° West 348 400 20,500 1,620 Climbing Washington Center
07:58PM 38.9494 -77.9058 274° West 375 432 22,100 1,620 Climbing Washington Center
07:59PM 38.9531 -78.0394 272° West 381 438 23,800 1,680 Climbing Washington Center
08:00PM 38.9586 -78.1783 273° West 391 450 25,500 1,500 Climbing Washington Center
08:01PM 38.9617 -78.3228 272° West 397 457 26,800 1,140 Climbing Washington Center
08:02PM 38.9664 -78.4722 272° West 408 470 27,800 600 Climbing Washington Center
08:03PM 38.9711 -78.6247 272° West 422 486 28,000 60 Climbing Washington Center
08:04PM 38.9753 -78.7825 272° West 434 499 28,000  Level Washington Center
08:05PM 38.9794 -78.9375 272° West 441 507 28,000  Level Washington Center
08:06PM 38.9833 -79.0925 272° West 441 507 28,000  Level Washington Center
08:07PM 38.9869 -79.2531 272° West 441 507 28,000  Level Washington Center
08:08PM 38.9906 -79.4056 272° West 441 507 28,000  Level Washington Center
08:09PM 38.9917 -79.5631 271° West 441 507 28,000  Level Washington Center
08:10PM 39.0022 -79.7425 274° West 447 514 28,000  Level Washington Center
08:11PM 39.0036 -79.8844 271° West 447 514 28,000  Level Washington Center
08:14PM 39.0050 -80.2167 270° West 440 506 28,000  Level Indianapolis Center
08:15PM 39.0078 -80.4053 271° West 441 507 28,000  Level Indianapolis Center
08:16PM 39.0103 -80.5617 271° West 440 506 28,000  Level Indianapolis Center
08:17PM 39.0125 -80.7203 271° West 443 510 28,000  Level Indianapolis Center
08:18PM 39.0378 -80.8714 282° West 445 512 28,000  Level Indianapolis Center
08:19PM 39.0961 -81.0131 298° West 452 520 28,000  Level Indianapolis Center
08:20PM 39.1550 -81.1550 298° West 454 522 28,000  Level Indianapolis Center
08:21PM 39.2086 -81.3014 295° West 455 524 28,000 -1,020 Level Indianapolis Center
08:22PM 39.2597 -81.4450 295° West 447 514 26,000 -2,040 Descending Indianapolis Center
08:23PM 39.3097 -81.5797 296° West 421 484 23,900 -2,400 Descending Indianapolis Center
08:24PM 39.3653 -81.7311 295° West 393 452 21,200 -2,280 Descending Indianapolis Center
08:25PM 39.4067 -81.8475 295° West 362 417 19,300 -1,860 Descending Indianapolis Center
08:26PM 39.4461 -81.9519 296° West 329 379 17,500 -1,740 Descending Indianapolis Center
08:27PM 39.4844 -82.0564 295° West 322 371 15,800 -1,680 Descending Indianapolis Center
08:28PM 39.5217 -82.1614 295° West 315 362 14,100 -1,740 Descending Indianapolis Center
08:29PM 39.5536 -82.2486 295° West 308 354 12,700 -1,620 Descending Indianapolis Center
08:30PM 39.5894 -82.3469 295° West 307 353 11,100 -1,260 Descending Indianapolis Center
08:31PM 39.6339 -82.4353 303° West 291 335 10,200 -1,260 Descending Indianapolis Center
08:32PM 39.6814 -82.5136 308° West 271 312 8,700 -1,440 Descending Indianapolis Center
08:32PM 39.6889 -82.5261 308° West 277 319 8,400 -1,800 Descending Indianapolis Center
08:33PM 39.7286 -82.5892 309° West 274 315 6,900 -1,800 Descending Indianapolis Center
08:33PM 39.7353 -82.6044 300° West 274 315 6,600 -1,020 Descending Indianapolis Center
08:34PM 39.7722 -82.6617 310° West 274 315 6,000 -600 Descending Indianapolis Center
08:34PM 39.7836 -82.6819 306° West 274 315 6,000  Level Indianapolis Center
08:35PM 39.8172 -82.7397 307° West 273 314 6,000  Level Indianapolis Center
08:35PM 39.8311 -82.7606 311° West 275 316 6,000  Level Indianapolis Center
08:36PM 39.8514 -82.8250 292° West 265 305 6,000  Level Indianapolis Center
08:36PM 39.8572 -82.8492 287° West 261 300 6,000 -120 Level Indianapolis Center
08:37PM 39.8744 -82.9172 288° West 263 303 5,900 -600 Descending Indianapolis Center
08:37PM 39.8803 -82.9414 287° West 265 305 5,400 -1,500 Descending Indianapolis Center
08:38PM 39.8953 -83.0119 286° West 263 303 4,400 -1,500 Descending Indianapolis Center
08:38PM 39.9119 -83.0417 306° West 265 305 3,900 -1,140 Descending Indianapolis Center
08:39PM 39.9531 -83.0514 350° North 231 266 3,300 -1,020 Descending Indianapolis Center